地図

経路データ

SID SEASON NUMBER BASIN SUBBASIN NAME ISO_TIME NATURE LAT LON WMO_WIND WMO_PRES WMO_AGENCY TRACK_TYPE DIST2LAND LANDFALL IFLAG USA_AGENCY USA_ATCF_ID USA_LAT USA_LON USA_RECORD USA_STATUS USA_WIND USA_PRES USA_SSHS USA_R34_NE USA_R34_SE USA_R34_SW USA_R34_NW USA_R50_NE USA_R50_SE USA_R50_SW USA_R50_NW USA_R64_NE USA_R64_SE USA_R64_SW USA_R64_NW USA_POCI USA_ROCI USA_RMW USA_EYE TOKYO_LAT TOKYO_LON TOKYO_GRADE TOKYO_WIND TOKYO_PRES TOKYO_R50_DIR TOKYO_R50_LONG TOKYO_R50_SHORT TOKYO_R30_DIR TOKYO_R30_LONG TOKYO_R30_SHORT TOKYO_LAND CMA_LAT CMA_LON CMA_CAT CMA_WIND CMA_PRES HKO_LAT HKO_LON HKO_CAT HKO_WIND HKO_PRES NEWDELHI_LAT NEWDELHI_LON NEWDELHI_GRADE NEWDELHI_WIND NEWDELHI_PRES NEWDELHI_CI NEWDELHI_DP NEWDELHI_POCI REUNION_LAT REUNION_LON REUNION_TYPE REUNION_WIND REUNION_PRES REUNION_TNUM REUNION_CI REUNION_RMW REUNION_R34_NE REUNION_R34_SE REUNION_R34_SW REUNION_R34_NW REUNION_R50_NE REUNION_R50_SE REUNION_R50_SW REUNION_R50_NW REUNION_R64_NE REUNION_R64_SE REUNION_R64_SW REUNION_R64_NW BOM_LAT BOM_LON BOM_TYPE BOM_WIND BOM_PRES BOM_TNUM BOM_CI BOM_RMW BOM_R34_NE BOM_R34_SE BOM_R34_SW BOM_R34_NW BOM_R50_NE BOM_R50_SE BOM_R50_SW BOM_R50_NW BOM_R64_NE BOM_R64_SE BOM_R64_SW BOM_R64_NW BOM_ROCI BOM_POCI BOM_EYE BOM_POS_METHOD BOM_PRES_METHOD NADI_LAT NADI_LON NADI_CAT NADI_WIND NADI_PRES WELLINGTON_LAT WELLINGTON_LON WELLINGTON_WIND WELLINGTON_PRES DS824_LAT DS824_LON DS824_STAGE DS824_WIND DS824_PRES TD9636_LAT TD9636_LON TD9636_STAGE TD9636_WIND TD9636_PRES TD9635_LAT TD9635_LON TD9635_WIND TD9635_PRES TD9635_ROCI NEUMANN_LAT NEUMANN_LON NEUMANN_CLASS NEUMANN_WIND NEUMANN_PRES MLC_LAT MLC_LON MLC_CLASS MLC_WIND MLC_PRES USA_GUST BOM_GUST BOM_GUST_PER REUNION_GUST REUNION_GUST_PER USA_SEAHGT USA_SEARAD_NE USA_SEARAD_SE USA_SEARAD_SW USA_SEARAD_NW STORM_SPEED STORM_DIR
1887274N30312 1887 56 NA NA NOT_NAMED 1887-09-30 12:00:00 TS 30.0000 -48.0000 main 1901 1821 _____________O -1 30.0000 -48.0000 TS 55 25 36
1887274N30312 1887 56 NA NA NOT_NAMED 1887-09-30 15:00:00 TS 31.0013 -47.1437 main 1813 1735 _____________P -1 31.0013 -47.1437 TS 57 25 36
1887274N30312 1887 56 NA NA NOT_NAMED 1887-09-30 18:00:00 TS 32.0000 -46.3000 main 1727 1654 _____________O -1 32.0000 -46.3000 TS 60 24 35
1887274N30312 1887 56 NA NA NOT_NAMED 1887-09-30 21:00:00 TS 32.9993 -45.4905 main 1647 1579 _____________P -1 32.9993 -45.4905 TS 62 24 34
1887274N30312 1887 56 NA NA NOT_NAMED 1887-10-01 00:00:00 TS 34.0000 -44.7000 main 1573 1511 _____________O -1 34.0000 -44.7000 HU 65 24 33
1887274N30312 1887 56 NA NA NOT_NAMED 1887-10-01 03:00:00 TS 34.9995 -43.8981 main 1505 1450 _____________P -1 34.9995 -43.8981 HU 65 24 33
1887274N30312 1887 56 NA NA NOT_NAMED 1887-10-01 06:00:00 TS 36.0000 -43.1000 main 1445 1388 _____________O -1 36.0000 -43.1000 HU 65 24 32
1887274N30312 1887 56 NA NA NOT_NAMED 1887-10-01 09:00:00 TS 37.0135 -42.3417 main 1394 1354 _____________P -1 37.0135 -42.3417 HU 65 24 33
1887274N30312 1887 56 NA NA NOT_NAMED 1887-10-01 12:00:00 TS 38.0000 -41.5000 main 1351 1336 _____________O -1 38.0000 -41.5000 HU 65 24 38
1887274N30312 1887 56 NA NA NOT_NAMED 1887-10-01 15:00:00 TS 38.9224 -40.4509 main 1339 1336 _____________P -1 38.9224 -40.4509 HU 65 25 44
1887274N30312 1887 56 NA NA NOT_NAMED 1887-10-01 18:00:00 TS 39.8000 -39.3000 main 1348 1347 _____________O -1 39.8000 -39.3000 HU 65 25 46
1887274N30312 1887 56 NA NA NOT_NAMED 1887-10-01 21:00:00 TS 40.6491 -38.1541 main 1367 1367 _____________P -1 40.6491 -38.1541 HU 65 24 46
1887274N30312 1887 56 NA NA NOT_NAMED 1887-10-02 00:00:00 TS 41.5000 -37.0000 main 1397 1397 _____________O -1 41.5000 -37.0000 HU 65 25 45
1887274N30312 1887 56 NA NA NOT_NAMED 1887-10-02 03:00:00 TS 42.3991 -35.8404 main 1429 1429 _____________P -1 42.3991 -35.8404 HU 67 25 43
1887274N30312 1887 56 NA NA NOT_NAMED 1887-10-02 06:00:00 ET 43.3000 -34.7000 main 1464 1464 _____________O -1 43.3000 -34.7000 EX 70 26 43
1887274N30312 1887 56 NA NA NOT_NAMED 1887-10-02 09:00:00 ET 44.2641 -33.4327 main 1517 1517 _____________P -1 44.2641 -33.4327 EX 70 23 43
1887274N30312 1887 56 NA NA NOT_NAMED 1887-10-02 12:00:00 ET 45.0000 -32.5000 main 1559 1559 _____________O -1 45.0000 -32.5000 EX 70 983 13 38
1887274N30312 1887 56 NA NA NOT_NAMED 1887-10-02 15:00:00 ET 45.2607 -32.3295 main 1564 1549 _____________P -1 45.2607 -32.3295 EX 67 3 0
1887274N30312 1887 56 NA NA NOT_NAMED 1887-10-02 18:00:00 ET 45.3000 -32.5000 main 1549 1546 _____________O -1 45.3000 -32.5000 EX 65 2 320
1887274N30312 1887 56 NA NA NOT_NAMED 1887-10-02 21:00:00 ET 45.4000 -32.5000 main 1546 1543 _____________P -1 45.4000 -32.5000 EX 62 2 8
1887274N30312 1887 56 NA NA NOT_NAMED 1887-10-03 00:00:00 ET 45.5000 -32.5000 main 1543 1540 _____________O -1 45.5000 -32.5000 EX 60 2 2
1887274N30312 1887 56 NA NA NOT_NAMED 1887-10-03 03:00:00 ET 45.6500 -32.5000 main 1537 1534 _____________P -1 45.6500 -32.5000 EX 57 3 0
1887274N30312 1887 56 NA NA NOT_NAMED 1887-10-03 06:00:00 ET 45.8000 -32.5000 main 1534 1524 _____________O -1 45.8000 -32.5000 EX 55 2 343
1887274N30312 1887 56 NA NA NOT_NAMED 1887-10-03 09:00:00 ET 45.8769 -32.5962 main 1524 1522 _____________P -1 45.8769 -32.5962 EX 52 2 8
1887274N30312 1887 56 NA NA NOT_NAMED 1887-10-03 12:00:00 ET 46.0000 -32.5000 main 1529 1529 _____________O -1 46.0000 -32.5000 EX 50 990 6 50
1887274N30312 1887 56 NA NA NOT_NAMED 1887-10-03 15:00:00 ET 46.2633 -31.9410 main 1566 1566 _____________P -1 46.2633 -31.9410 EX 50 11 56
1887274N30312 1887 56 NA NA NOT_NAMED 1887-10-03 18:00:00 ET 46.6000 -31.2000 main 1604 1548 _____________O -1 46.6000 -31.2000 EX 50 11 53
1887274N30312 1887 56 NA NA NOT_NAMED 1887-10-03 21:00:00 ET 46.9494 -30.5995 main 1548 1487 _____________P -1 46.9494 -30.5995 EX 50 11 49
1887274N30312 1887 56 NA NA NOT_NAMED 1887-10-04 00:00:00 ET 47.3000 -30.0000 main 1487 1432 _____________O -1 47.3000 -30.0000 EX 50 11 52
1887274N30312 1887 56 NA NA NOT_NAMED 1887-10-04 03:00:00 ET 47.6074 -29.3493 main 1425 1371 _____________P -1 47.6074 -29.3493 EX 50 11 56
1887274N30312 1887 56 NA NA NOT_NAMED 1887-10-04 06:00:00 ET 47.9000 -28.7000 main 1371 1316 _____________O -1 47.9000 -28.7000 EX 50 10 55
1887274N30312 1887 56 NA NA NOT_NAMED 1887-10-04 09:00:00 ET 48.1979 -28.0889 main 1316 1262 _____________P -1 48.1979 -28.0889 EX 50 10 53
1887274N30312 1887 56 NA NA NOT_NAMED 1887-10-04 12:00:00 ET 48.5000 -27.5000 main 1262 _____________O -1 48.5000 -27.5000 EX 50 1002 10 52

IBTrACS Databaseについて

本データベースは、米国NOAAが公開する1842年以降の世界の熱帯低気圧のベストトラックデータアーカイブInternational Best Track Archive for Climate Stewardship (IBTrACS)を、ウェブで閲覧しやすい形式に変換したものです。

最終更新日:2021-12-06